RESULTATS »

INSCRITS PRESENTATS ACABEN RETIRATS DESQUALIFICATS DIST. TRAM 1 DIST. TRAM 2 DIST. TRAM 3 TEMP. EXT TEMP. AIGUA
0 0 0 0 5000 2000 5000 0 0

CLASSIFICACIÓ

MASCULÍ FEMENÍ CATEGORIES CLUBS (MASCULINA) CLUBS (FEMENINA) INDIVIDUALS GRUPS D'EDAT

LLOCDORSALNOMCLUBCAT.T.META| P.Tram 1 || P.Tram 2 |Km/hTEMPS| P.Tram 3 |PARC_1PARC_2
1 4039GEORGINA CONESA I MURCLUB TRIATLO VALLIRANACDF01:20:007100:22:43300:32:413671.6000:55:249000:24:360:00:000:00:00
2 1988BELEN HIDALGO VALLSC.T.S.J. ABADESSESABF01:26:359400:23:382100:38:193131.8001:01:579300:24:380:00:000:00:00
3 105CAROLINA JORDI OLANOC.T.S.J. ABADESSESABF01:28:056600:22:085000:41:422877.7001:03:508500:24:150:00:000:00:00
4 6026ANA POZO ÁLVAREZLLICENCIA DE DIAABF01:29:3611400:24:393900:40:322960.5301:05:118800:24:250:00:000:00:00
5 1902Mª ANGELS MARZO GOMEZCLUB NATACIÓ SITGESABF01:31:1012700:25:233000:39:123061.2201:04:3512200:26:350:00:000:00:00
6 104VANESSA JORDI OLANOC.T.S.J. ABADESSESABF01:32:209100:23:336900:44:192707.7801:07:528900:24:280:00:000:00:00
7 5027ESTER FRANCO GARCIALLICENCIA DE DIAABF01:33:1911900:24:585800:42:542797.2001:07:5210600:25:270:00:000:00:00
8 123CATARINA SOUSACLUB TRIATLO SABADELLABF01:37:3015000:27:045600:42:452807.0201:09:4914000:27:410:00:000:00:00
9 1908TERESA AGUILÓ INGLADACLUB NATACIO SITGESABF01:37:4210700:24:249300:47:582501.7401:12:2210500:25:200:00:000:00:00
10 5002LETICIA BARRIO LORENZOLLICENCIA DE DIAABF01:38:5613600:25:447700:45:422625.8201:11:2613400:27:300:00:000:00:00
11 3529CHIARA TRONCARELLIC.E. PICORNELLABF01:39:4515800:28:094900:41:412878.8501:09:5015500:29:550:00:000:00:00
12 1969SANDRA VICENTE MORENOC.T.S.J. ABADESSESABF01:42:0613500:25:4310600:49:232429.9701:15:0613000:27:000:00:000:00:00
13 5003CELESTE FIORE CASTELLANOLLICENCIA DE DIAABF01:42:3016200:28:267000:44:272699.6601:12:5315100:29:370:00:000:00:00
14 1956ARANTXA LOPEZ GRAUCLUB ESPAI ESPORT WELLNESABF01:44:0416400:28:536100:43:472740.7701:12:4016600:31:240:00:000:00:00
15 90SILVIA SERRA LLUVERASTEAM CALELLA TRIATHLONABF01:44:3014400:26:2911400:50:302376.2401:16:5913600:27:310:00:000:00:00
16 6021DESIREE VIDALLLICENCIA DE DIASUB23F01:45:1515100:27:0611300:50:252380.1701:17:3114200:27:440:00:000:00:00
17 6039JUDIT BATALLA FOIXLLICENCIA DE DIAABF01:47:0514900:26:5711800:51:112344.5101:18:0814800:28:570:00:000:00:00
18 5012MERITXELL MAÑÉ MARTÍNLLICENCIA DE DIASUB23F01:47:3515600:27:3510700:49:392416.9201:17:1415700:30:210:00:000:00:00
19 3561INGRID SERVAISTRIATLO BCN-TRIFORFUNABF01:49:2517000:30:278200:45:542614.3801:16:2116900:33:040:00:000:00:00
20 3584EVA SANCHEZ TABIOSCLUB TRIATLO L´EIX DE NAVABF01:52:2715500:27:2913900:54:192209.2701:21:4816000:30:390:00:000:00:00
21 6029ANNA GIMENOLLICENCIA DE DIAABF01:55:1116000:28:2314900:56:102136.5001:24:3315900:30:380:00:000:00:00
22 6030ARANTXA ABILLAR ENJUANESLLICENCIA DE DIAABF01:56:0015900:28:2014700:56:012142.2201:24:2116700:31:390:00:000:00:00
23 5030ROSSANA MASLLICENCIA DE DIAV1F01:59:4916500:29:3315600:59:102028.1701:28:4316400:31:060:00:000:00:00
24 1851MARTA SANCHEZ SALINASCLUB TRIATLO L´EIX DE NAVV1F02:15:1616800:30:0116901:10:351700.1201:40:3617000:34:400:00:000:00:00






FEDERACIÓ CATALANA DE TRIATLÓ
SEU CENTRAL I CORRESPONDÈNCIA: Rambla Guipúscoa 23-25 2on-D · 08018 Barcelona · Tel / Fax : 93 307 93 35
ATENCIÓ AL PÚBLIC: Passeig Joan de Borbó, 93 (Club Natació Barcelona) · 08039 Barcelona · Tel / Fax : 93 307 93 32